createdAt,value
2018-09-27T00:00:46.626Z,85
2018-09-27T00:01:48.650Z,85
2018-09-27T00:02:51.352Z,85
2018-09-27T00:03:53.367Z,85
2018-09-27T00:04:55.407Z,85
2018-09-27T00:05:57.433Z,85
2018-09-27T00:06:59.460Z,85
2018-09-27T00:08:02.070Z,85
2018-09-27T00:09:04.761Z,85
2018-09-27T00:10:06.794Z,85
2018-09-27T00:11:08.830Z,85
2018-09-27T00:12:10.873Z,85
2018-09-27T00:13:12.893Z,86
2018-09-27T00:14:14.926Z,86
2018-09-27T00:15:16.958Z,86
2018-09-27T00:16:18.984Z,85
2018-09-27T00:17:21.024Z,86
2018-09-27T00:18:23.047Z,86
2018-09-27T00:19:25.078Z,86
2018-09-27T00:20:27.500Z,86
2018-09-27T00:21:29.830Z,86
2018-09-27T00:22:31.854Z,86
2018-09-27T00:23:33.885Z,86
2018-09-27T00:24:35.906Z,86
2018-09-27T00:25:37.944Z,86
2018-09-27T00:26:39.981Z,86
2018-09-27T00:27:42.017Z,86
2018-09-27T00:28:44.039Z,87
2018-09-27T00:29:46.076Z,86
2018-09-27T00:30:48.098Z,86
2018-09-27T00:31:50.128Z,87
2018-09-27T00:32:52.164Z,86
2018-09-27T00:33:54.568Z,87
2018-09-27T00:34:56.907Z,87
2018-09-27T00:35:58.932Z,87
2018-09-27T00:37:00.970Z,87
2018-09-27T00:38:03.273Z,87
2018-09-27T00:39:05.310Z,87
2018-09-27T00:40:07.346Z,87
2018-09-27T00:41:09.373Z,87
2018-09-27T00:42:11.412Z,87
2018-09-27T00:43:13.434Z,87
2018-09-27T00:44:15.459Z,87
2018-09-27T00:45:17.484Z,87
2018-09-27T00:46:19.524Z,87
2018-09-27T00:47:21.553Z,87
2018-09-27T00:48:23.583Z,87
2018-09-27T00:49:25.618Z,87
2018-09-27T00:50:27.635Z,87
2018-09-27T00:51:30.058Z,87
2018-09-27T00:52:32.469Z,87
2018-09-27T00:53:34.508Z,87
2018-09-27T00:54:36.536Z,87
2018-09-27T00:55:38.562Z,87
2018-09-27T00:56:40.591Z,87
2018-09-27T00:57:42.612Z,87
2018-09-27T00:58:44.648Z,87
2018-09-27T00:59:47.346Z,87
2018-09-27T01:00:49.766Z,87
2018-09-27T01:01:52.168Z,87
2018-09-27T01:02:54.205Z,87
2018-09-27T01:03:56.531Z,87
2018-09-27T01:04:58.560Z,87
2018-09-27T01:06:00.599Z,86
2018-09-27T01:07:02.909Z,86
2018-09-27T01:08:04.941Z,86
2018-09-27T01:09:07.247Z,86
2018-09-27T01:10:09.284Z,87
2018-09-27T01:11:11.304Z,87
2018-09-27T01:12:13.340Z,87
2018-09-27T01:13:15.370Z,87
2018-09-27T01:14:17.396Z,87
2018-09-27T01:15:19.440Z,87
2018-09-27T01:16:21.459Z,87
2018-09-27T01:17:23.484Z,87
2018-09-27T01:18:25.511Z,87
2018-09-27T01:19:27.829Z,87
2018-09-27T01:20:29.855Z,87
2018-09-27T01:21:31.884Z,87
2018-09-27T01:22:34.211Z,87
2018-09-27T01:23:36.226Z,87
2018-09-27T01:24:38.262Z,87
2018-09-27T01:25:40.302Z,87
2018-09-27T01:26:42.317Z,87
2018-09-27T01:27:44.350Z,87
2018-09-27T01:28:46.385Z,87
2018-09-27T01:29:48.421Z,87
2018-09-27T01:30:50.725Z,87
2018-09-27T01:31:52.759Z,87
2018-09-27T01:32:55.179Z,87
2018-09-27T01:33:57.213Z,87
2018-09-27T01:34:59.229Z,87
2018-09-27T01:36:01.271Z,87
2018-09-27T01:37:03.295Z,87
2018-09-27T01:38:05.326Z,87
2018-09-27T01:39:07.361Z,87
2018-09-27T01:40:09.381Z,87
2018-09-27T01:41:11.700Z,87
2018-09-27T01:42:13.723Z,87
2018-09-27T01:43:15.768Z,88
2018-09-27T01:44:18.069Z,88
2018-09-27T01:45:20.405Z,88
2018-09-27T01:46:22.439Z,88
2018-09-27T01:47:24.739Z,88
2018-09-27T01:48:27.200Z,88
2018-09-27T01:49:29.209Z,88
2018-09-27T01:50:31.238Z,88
2018-09-27T01:51:33.266Z,88
2018-09-27T01:52:35.301Z,88
2018-09-27T01:53:37.328Z,88
2018-09-27T01:54:39.356Z,89
2018-09-27T01:55:41.392Z,89
2018-09-27T01:56:43.409Z,89
2018-09-27T01:57:45.444Z,89
2018-09-27T01:58:47.483Z,89
2018-09-27T01:59:49.788Z,89
2018-09-27T02:00:51.826Z,89
2018-09-27T02:01:54.450Z,89
2018-09-27T02:02:56.477Z,90
2018-09-27T02:03:58.511Z,90
2018-09-27T02:05:00.537Z,90
2018-09-27T02:06:02.952Z,90
2018-09-27T02:07:04.984Z,90
2018-09-27T02:08:07.005Z,90
2018-09-27T02:09:09.328Z,90
2018-09-27T02:10:11.365Z,90
2018-09-27T02:11:13.392Z,90
2018-09-27T02:12:15.430Z,91
2018-09-27T02:13:17.448Z,91
2018-09-27T02:14:19.483Z,91
2018-09-27T02:15:22.178Z,91
2018-09-27T02:16:24.606Z,91
2018-09-27T02:17:26.625Z,91
2018-09-27T02:18:28.662Z,91
2018-09-27T02:19:31.361Z,91
2018-09-27T02:20:33.668Z,91
2018-09-27T02:21:36.102Z,91
2018-09-27T02:22:38.124Z,91
2018-09-27T02:23:40.151Z,91
2018-09-27T02:24:42.178Z,91
2018-09-27T02:25:44.217Z,91
2018-09-27T02:26:46.240Z,91
2018-09-27T02:27:48.657Z,90
2018-09-27T02:28:50.692Z,91
2018-09-27T02:29:52.709Z,91
2018-09-27T02:30:55.515Z,91
2018-09-27T02:31:58.138Z,91
2018-09-27T02:33:00.160Z,91
2018-09-27T02:34:02.632Z,91
2018-09-27T02:35:04.659Z,91
2018-09-27T02:36:06.687Z,91
2018-09-27T02:37:08.722Z,91
2018-09-27T02:38:11.422Z,91
2018-09-27T02:39:13.456Z,91
2018-09-27T02:40:15.486Z,90
2018-09-27T02:41:17.523Z,90
2018-09-27T02:42:19.929Z,90
2018-09-27T02:43:21.964Z,90
2018-09-27T02:44:23.999Z,90
2018-09-27T02:45:26.332Z,90
2018-09-27T02:46:28.957Z,90
2018-09-27T02:47:30.981Z,90
2018-09-27T02:48:33.013Z,90
2018-09-27T02:49:35.323Z,90
2018-09-27T02:50:38.132Z,90
2018-09-27T02:51:40.160Z,90
2018-09-27T02:52:42.488Z,90
2018-09-27T02:53:44.565Z,90
2018-09-27T02:54:46.539Z,90
2018-09-27T02:55:49.235Z,90
2018-09-27T02:56:51.273Z,90
2018-09-27T02:57:53.592Z,90
2018-09-27T02:58:55.603Z,90
2018-09-27T02:59:58.022Z,90
2018-09-27T03:01:00.053Z,90
2018-09-27T03:02:02.361Z,90
2018-09-27T03:03:04.714Z,90
2018-09-27T03:04:06.737Z,90
2018-09-27T03:05:09.044Z,90
2018-09-27T03:06:11.086Z,90
2018-09-27T03:07:13.115Z,90
2018-09-27T03:08:15.138Z,90
2018-09-27T03:09:17.450Z,89
2018-09-27T03:10:19.476Z,89
2018-09-27T03:11:21.511Z,90
2018-09-27T03:12:23.547Z,90
2018-09-27T03:13:25.583Z,89
2018-09-27T03:14:27.606Z,89
2018-09-27T03:15:29.640Z,90
2018-09-27T03:16:32.046Z,89
2018-09-27T03:17:34.076Z,90
2018-09-27T03:18:36.110Z,89
2018-09-27T03:19:38.511Z,89
2018-09-27T03:20:40.851Z,89
2018-09-27T03:21:43.166Z,89
2018-09-27T03:22:45.215Z,89
2018-09-27T03:23:47.522Z,89
2018-09-27T03:24:49.939Z,89
2018-09-27T03:25:51.963Z,89
2018-09-27T03:26:54.282Z,89
2018-09-27T03:27:56.300Z,89
2018-09-27T03:28:58.610Z,89
2018-09-27T03:30:00.647Z,89
2018-09-27T03:31:03.367Z,89
2018-09-27T03:32:05.684Z,89
2018-09-27T03:33:08.006Z,89
2018-09-27T03:34:10.349Z,89
2018-09-27T03:35:12.378Z,88
2018-09-27T03:36:14.416Z,88
2018-09-27T03:37:16.443Z,89
2018-09-27T03:38:19.238Z,88
2018-09-27T03:39:21.281Z,89
2018-09-27T03:40:23.662Z,89
2018-09-27T03:41:25.919Z,89
2018-09-27T03:42:28.241Z,89
2018-09-27T03:43:30.268Z,89
2018-09-27T03:44:32.688Z,88
2018-09-27T03:45:34.726Z,88
2018-09-27T03:46:36.762Z,88
2018-09-27T03:47:38.779Z,88
2018-09-27T03:48:40.820Z,89
2018-09-27T03:49:42.850Z,89
2018-09-27T03:50:44.882Z,89
2018-09-27T03:51:46.916Z,89
2018-09-27T03:52:49.249Z,88
2018-09-27T03:53:51.291Z,88
2018-09-27T03:54:53.313Z,88
2018-09-27T03:55:55.637Z,88
2018-09-27T03:56:57.942Z,88
2018-09-27T03:58:01.033Z,88
2018-09-27T03:59:03.659Z,88
2018-09-27T04:00:06.070Z,88
2018-09-27T04:01:08.384Z,88
2018-09-27T04:02:10.422Z,88
2018-09-27T04:03:12.948Z,88
2018-09-27T04:04:15.304Z,88
2018-09-27T04:05:17.320Z,88
2018-09-27T04:06:19.638Z,88
2018-09-27T04:07:21.669Z,88
2018-09-27T04:08:23.992Z,88
2018-09-27T04:09:26.301Z,88
2018-09-27T04:10:28.617Z,88
2018-09-27T04:11:30.640Z,88
2018-09-27T04:12:33.591Z,88
2018-09-27T04:13:35.581Z,88
2018-09-27T04:14:37.901Z,88
2018-09-27T04:15:39.937Z,88
2018-09-27T04:16:41.954Z,88
2018-09-27T04:17:43.997Z,88
2018-09-27T04:18:46.315Z,88
2018-09-27T04:19:48.349Z,88
2018-09-27T04:20:50.663Z,88
2018-09-27T04:21:52.714Z,88
2018-09-27T04:22:54.731Z,88
2018-09-27T04:23:57.097Z,88
2018-09-27T04:24:59.107Z,88
2018-09-27T04:26:01.124Z,88
2018-09-27T04:27:03.158Z,88
2018-09-27T04:28:05.570Z,88
2018-09-27T04:29:08.000Z,88
2018-09-27T04:30:10.300Z,88
2018-09-27T04:31:12.334Z,89
2018-09-27T04:32:14.365Z,88
2018-09-27T04:33:16.391Z,88
2018-09-27T04:34:18.434Z,88
2018-09-27T04:35:20.840Z,88
2018-09-27T04:36:22.864Z,88
2018-09-27T04:37:24.888Z,88
2018-09-27T04:38:27.241Z,88
2018-09-27T04:39:29.259Z,88
2018-09-27T04:40:31.673Z,88
2018-09-27T04:41:33.981Z,88
2018-09-27T04:42:36.407Z,88
2018-09-27T04:43:38.430Z,88
2018-09-27T04:44:40.741Z,88
2018-09-27T04:45:43.485Z,88
2018-09-27T04:46:45.576Z,88
2018-09-27T04:47:47.508Z,88
2018-09-27T04:48:49.533Z,88
2018-09-27T04:49:51.859Z,88
2018-09-27T04:50:53.897Z,88
2018-09-27T04:51:56.001Z,88
2018-09-27T04:52:57.963Z,88
2018-09-27T04:54:00.265Z,88
2018-09-27T04:55:02.308Z,88
2018-09-27T04:56:04.332Z,88
2018-09-27T04:57:06.364Z,88
2018-09-27T04:58:08.400Z,88
2018-09-27T04:59:10.418Z,88
2018-09-27T05:00:12.454Z,88
2018-09-27T05:01:14.483Z,89
2018-09-27T05:02:16.518Z,89
2018-09-27T05:03:18.539Z,89
2018-09-27T05:04:20.575Z,89
2018-09-27T05:05:22.618Z,89
2018-09-27T05:06:24.978Z,89
2018-09-27T05:07:27.350Z,89
2018-09-27T05:08:29.377Z,89
2018-09-27T05:09:32.153Z,89
2018-09-27T05:10:34.892Z,89
2018-09-27T05:11:36.933Z,89
2018-09-27T05:12:38.964Z,89
2018-09-27T05:13:41.280Z,89
2018-09-27T05:14:43.314Z,89
2018-09-27T05:15:45.354Z,90
2018-09-27T05:16:47.362Z,90
2018-09-27T05:17:49.403Z,90
2018-09-27T05:18:51.422Z,90
2018-09-27T05:19:53.460Z,89
2018-09-27T05:20:55.496Z,89
2018-09-27T05:21:57.525Z,89
2018-09-27T05:22:59.559Z,90
2018-09-27T05:24:01.880Z,89
2018-09-27T05:25:03.906Z,89
2018-09-27T05:26:06.224Z,89
2018-09-27T05:27:08.293Z,89
2018-09-27T05:28:10.281Z,89
2018-09-27T05:29:12.315Z,89
2018-09-27T05:30:14.341Z,89
2018-09-27T05:31:16.366Z,89
2018-09-27T05:32:18.405Z,89
2018-09-27T05:33:20.716Z,90
2018-09-27T05:34:23.150Z,90
2018-09-27T05:35:25.171Z,90
2018-09-27T05:36:27.215Z,90
2018-09-27T05:37:29.238Z,90
2018-09-27T05:38:31.261Z,90
2018-09-27T05:39:33.355Z,89
2018-09-27T05:40:36.078Z,90
2018-09-27T05:41:38.114Z,90
2018-09-27T05:42:40.148Z,89
2018-09-27T05:43:42.183Z,89
2018-09-27T05:44:44.205Z,89
2018-09-27T05:45:46.529Z,89
2018-09-27T05:46:48.559Z,89
2018-09-27T05:47:50.585Z,89
2018-09-27T05:48:52.936Z,89
2018-09-27T05:49:55.414Z,89
2018-09-27T05:50:57.388Z,89
2018-09-27T05:51:59.433Z,89
2018-09-27T05:53:01.454Z,89
2018-09-27T05:54:03.482Z,89
2018-09-27T05:55:05.509Z,89
2018-09-27T05:56:07.544Z,89
2018-09-27T05:57:09.564Z,89
2018-09-27T05:58:11.591Z,89
2018-09-27T05:59:13.902Z,89
2018-09-27T06:00:15.944Z,89
2018-09-27T06:01:17.972Z,89
2018-09-27T06:02:20.313Z,89
2018-09-27T06:03:22.345Z,89
2018-09-27T06:04:24.369Z,89
2018-09-27T06:05:26.413Z,89
2018-09-27T06:06:28.437Z,89
2018-09-27T06:07:30.472Z,89
2018-09-27T06:08:32.877Z,89
2018-09-27T06:09:35.446Z,89
2018-09-27T06:10:37.780Z,90
2018-09-27T06:11:40.127Z,90
2018-09-27T06:12:42.148Z,90
2018-09-27T06:13:44.164Z,90
2018-09-27T06:14:46.194Z,89
2018-09-27T06:15:48.228Z,89
2018-09-27T06:16:50.264Z,89
2018-09-27T06:17:52.281Z,89
2018-09-27T06:18:54.323Z,89
2018-09-27T06:19:56.405Z,89
2018-09-27T06:20:58.773Z,89
2018-09-27T06:22:01.194Z,89
2018-09-27T06:23:03.600Z,89
2018-09-27T06:24:05.915Z,89
2018-09-27T06:25:07.955Z,89
2018-09-27T06:26:10.064Z,88
2018-09-27T06:27:12.005Z,88
2018-09-27T06:28:14.035Z,88
2018-09-27T06:29:16.058Z,89
2018-09-27T06:30:18.092Z,89
2018-09-27T06:31:20.128Z,89
2018-09-27T06:32:22.164Z,89
2018-09-27T06:33:24.538Z,89
2018-09-27T06:34:26.494Z,89
2018-09-27T06:35:28.527Z,89
2018-09-27T06:36:30.556Z,89
2018-09-27T06:37:32.576Z,89
2018-09-27T06:38:34.669Z,89
2018-09-27T06:39:36.645Z,89
2018-09-27T06:40:38.677Z,90
2018-09-27T06:41:40.697Z,90
2018-09-27T06:42:42.757Z,90
2018-09-27T06:43:44.759Z,90
2018-09-27T06:44:46.784Z,90
2018-09-27T06:45:48.819Z,90
2018-09-27T06:46:50.832Z,90
2018-09-27T06:47:53.254Z,90
2018-09-27T06:48:55.377Z,90
2018-09-27T06:49:57.762Z,90
2018-09-27T06:50:59.785Z,90
2018-09-27T06:52:01.821Z,89
2018-09-27T06:53:03.850Z,90
2018-09-27T06:54:05.874Z,90
2018-09-27T06:55:08.833Z,90
2018-09-27T06:56:11.182Z,90
2018-09-27T06:57:13.553Z,89
2018-09-27T06:58:15.593Z,89
2018-09-27T06:59:17.622Z,89
2018-09-27T07:00:19.644Z,89
2018-09-27T07:01:21.677Z,90
2018-09-27T07:02:23.701Z,89
2018-09-27T07:03:26.064Z,89
2018-09-27T07:04:28.097Z,89
2018-09-27T07:05:30.424Z,89
2018-09-27T07:06:32.450Z,89
2018-09-27T07:07:35.180Z,89
2018-09-27T07:08:37.249Z,89
2018-09-27T07:09:39.247Z,89
2018-09-27T07:10:41.940Z,89
2018-09-27T07:11:44.284Z,89
2018-09-27T07:12:46.750Z,89
2018-09-27T07:13:48.712Z,89
2018-09-27T07:14:51.020Z,89
2018-09-27T07:15:53.062Z,89
2018-09-27T07:16:55.090Z,89
2018-09-27T07:17:57.505Z,88
2018-09-27T07:18:59.537Z,89
2018-09-27T07:20:01.560Z,88
2018-09-27T07:21:03.896Z,89
2018-09-27T07:22:05.936Z,88
2018-09-27T07:23:07.977Z,88
2018-09-27T07:24:10.005Z,88
2018-09-27T07:25:12.393Z,88
2018-09-27T07:26:14.758Z,88
2018-09-27T07:27:17.079Z,88
2018-09-27T07:28:19.122Z,88
2018-09-27T07:29:21.819Z,88
2018-09-27T07:30:23.848Z,88
2018-09-27T07:31:25.888Z,88
2018-09-27T07:32:27.929Z,88
2018-09-27T07:33:30.257Z,88
2018-09-27T07:34:32.859Z,88
2018-09-27T07:35:34.885Z,88
2018-09-27T07:36:37.023Z,88
2018-09-27T07:37:38.959Z,88
2018-09-27T07:38:41.473Z,88
2018-09-27T07:39:43.786Z,88
2018-09-27T07:40:45.828Z,88
2018-09-27T07:41:48.140Z,88
2018-09-27T07:42:50.226Z,88
2018-09-27T07:43:53.119Z,87
2018-09-27T07:44:55.140Z,88
2018-09-27T07:45:57.178Z,88
2018-09-27T07:46:59.206Z,88
2018-09-27T07:48:01.251Z,88
2018-09-27T07:49:03.272Z,88
2018-09-27T07:50:05.309Z,88
2018-09-27T07:51:07.349Z,87
2018-09-27T07:52:10.041Z,88
2018-09-27T07:53:12.390Z,87
2018-09-27T07:54:14.793Z,87
2018-09-27T07:55:17.385Z,87
2018-09-27T07:56:19.418Z,87
2018-09-27T07:57:21.842Z,87
2018-09-27T07:58:23.872Z,87
2018-09-27T07:59:26.188Z,87
2018-09-27T08:00:28.228Z,87
2018-09-27T08:01:30.251Z,87
2018-09-27T08:02:32.625Z,87
2018-09-27T08:03:35.025Z,87
2018-09-27T08:04:37.709Z,86
2018-09-27T08:05:40.060Z,86
2018-09-27T08:06:42.375Z,86
2018-09-27T08:07:44.409Z,86
2018-09-27T08:08:47.129Z,86
2018-09-27T08:09:49.155Z,85
2018-09-27T08:10:51.186Z,85
2018-09-27T08:11:53.233Z,84
2018-09-27T08:12:55.650Z,84
2018-09-27T08:13:57.950Z,83
2018-09-27T08:15:00.589Z,83
2018-09-27T08:16:02.619Z,84
2018-09-27T08:17:04.669Z,84
2018-09-27T08:18:06.690Z,82
2018-09-27T08:19:08.719Z,81
2018-09-27T08:20:10.759Z,81
2018-09-27T08:21:13.003Z,81
2018-09-27T08:22:14.850Z,80
2018-09-27T08:23:16.881Z,80
2018-09-27T08:24:18.908Z,79
2018-09-27T08:25:20.949Z,79
2018-09-27T08:26:23.382Z,78
2018-09-27T08:27:25.408Z,78
2018-09-27T08:28:27.439Z,77
2018-09-27T08:29:29.468Z,78
2018-09-27T08:30:31.990Z,77
2018-09-27T08:31:33.956Z,77
2018-09-27T08:32:36.092Z,76
2018-09-27T08:33:38.036Z,76
2018-09-27T08:34:40.062Z,78
2018-09-27T08:35:42.104Z,76
2018-09-27T08:36:44.460Z,76
2018-09-27T08:37:46.765Z,74
2018-09-27T08:38:49.208Z,75
2018-09-27T08:39:51.146Z,73
2018-09-27T08:40:53.187Z,73
2018-09-27T08:41:55.230Z,73
2018-09-27T08:42:57.259Z,73
2018-09-27T08:43:59.295Z,73
2018-09-27T08:45:03.063Z,73
2018-09-27T08:46:04.914Z,73
2018-09-27T08:47:06.939Z,73
2018-09-27T08:48:08.986Z,72
2018-09-27T08:49:11.029Z,71
2018-09-27T08:50:13.061Z,71
2018-09-27T08:51:15.112Z,71
2018-09-27T08:52:17.142Z,71
2018-09-27T08:53:19.181Z,71
2018-09-27T08:54:21.207Z,70
2018-09-27T08:55:23.286Z,71
2018-09-27T08:56:25.639Z,71
2018-09-27T08:57:27.984Z,70
2018-09-27T08:58:30.001Z,70
2018-09-27T08:59:32.030Z,68
2018-09-27T09:00:34.079Z,69
2018-09-27T09:01:36.179Z,70
2018-09-27T09:02:38.173Z,71
2018-09-27T09:03:40.326Z,71
2018-09-27T09:04:42.795Z,71
2018-09-27T09:05:44.837Z,70
2018-09-27T09:06:46.871Z,71
2018-09-27T09:07:49.211Z,70
2018-09-27T09:08:51.248Z,70
2018-09-27T09:09:53.278Z,69
2018-09-27T09:10:56.006Z,69
2018-09-27T09:11:58.060Z,69
2018-09-27T09:13:00.376Z,70
2018-09-27T09:14:02.415Z,70
2018-09-27T09:15:04.448Z,71
2018-09-27T09:16:06.492Z,70
2018-09-27T09:17:08.845Z,69
2018-09-27T09:18:10.889Z,69
2018-09-27T09:19:13.224Z,70
2018-09-27T09:20:15.567Z,68
2018-09-27T09:21:17.588Z,68
2018-09-27T09:22:19.627Z,69
2018-09-27T09:23:21.668Z,68
2018-09-27T09:24:23.764Z,68
2018-09-27T09:25:25.745Z,67
2018-09-27T09:26:28.062Z,67
2018-09-27T09:27:30.149Z,68
2018-09-27T09:28:32.552Z,68
2018-09-27T09:29:35.070Z,69
2018-09-27T09:30:37.063Z,67
2018-09-27T09:31:39.098Z,67
2018-09-27T09:32:41.152Z,67
2018-09-27T09:33:43.262Z,67
2018-09-27T09:34:45.217Z,68
2018-09-27T09:35:47.259Z,68
2018-09-27T09:36:49.307Z,69
2018-09-27T09:37:51.350Z,69
2018-09-27T09:38:53.671Z,69
2018-09-27T09:39:55.997Z,69
2018-09-27T09:40:58.028Z,68
2018-09-27T09:42:00.074Z,68
2018-09-27T09:43:02.113Z,68
2018-09-27T09:44:04.172Z,68
2018-09-27T09:45:06.205Z,70
2018-09-27T09:46:08.247Z,70
2018-09-27T09:47:10.682Z,68
2018-09-27T09:48:12.718Z,68
2018-09-27T09:49:14.769Z,69
2018-09-27T09:50:16.827Z,69
2018-09-27T09:51:18.877Z,69
2018-09-27T09:52:20.918Z,68
2018-09-27T09:53:22.967Z,67
2018-09-27T09:54:25.006Z,66
2018-09-27T09:55:27.047Z,65
2018-09-27T09:56:29.098Z,65
2018-09-27T09:57:31.517Z,65
2018-09-27T09:58:33.568Z,64
2018-09-27T09:59:35.891Z,63
2018-09-27T10:00:37.947Z,63
2018-09-27T10:01:40.731Z,63
2018-09-27T10:02:43.016Z,64
2018-09-27T10:03:45.463Z,65
2018-09-27T10:04:47.776Z,63
2018-09-27T10:05:50.115Z,64
2018-09-27T10:06:52.150Z,63
2018-09-27T10:07:54.183Z,63
2018-09-27T10:08:56.729Z,64
2018-09-27T10:09:58.737Z,65
2018-09-27T10:11:00.774Z,67
2018-09-27T10:12:02.818Z,66
2018-09-27T10:13:05.145Z,67
2018-09-27T10:14:07.179Z,68
2018-09-27T10:15:09.277Z,66
2018-09-27T10:16:11.524Z,66
2018-09-27T10:17:13.629Z,65
2018-09-27T10:18:16.085Z,65
2018-09-27T10:19:18.190Z,65
2018-09-27T10:20:20.350Z,65
2018-09-27T10:21:22.840Z,66
2018-09-27T10:22:24.915Z,66
2018-09-27T10:23:27.356Z,67
2018-09-27T10:24:29.685Z,69
2018-09-27T10:25:31.741Z,68
2018-09-27T10:26:33.770Z,68
2018-09-27T10:27:36.286Z,69
2018-09-27T10:28:38.547Z,68
2018-09-27T10:29:40.737Z,69
2018-09-27T10:30:42.828Z,67
2018-09-27T10:31:44.859Z,67
2018-09-27T10:32:46.913Z,67
2018-09-27T10:33:48.940Z,68
2018-09-27T10:34:51.281Z,67
2018-09-27T10:35:53.312Z,67
2018-09-27T10:36:55.348Z,69
2018-09-27T10:37:58.083Z,68
2018-09-27T10:39:01.872Z,67
2018-09-27T10:40:03.944Z,67
2018-09-27T10:41:06.267Z,68
2018-09-27T10:42:08.324Z,69
2018-09-27T10:43:10.360Z,68
2018-09-27T10:44:12.404Z,69
2018-09-27T10:45:14.752Z,70
2018-09-27T10:46:16.787Z,70
2018-09-27T10:47:18.835Z,70
2018-09-27T10:48:21.261Z,70
2018-09-27T10:49:23.576Z,70
2018-09-27T10:50:25.629Z,69
2018-09-27T10:51:28.183Z,69
2018-09-27T10:52:30.130Z,71
2018-09-27T10:53:32.167Z,69
2018-09-27T10:54:34.479Z,70
2018-09-27T10:55:36.525Z,69
2018-09-27T10:56:38.572Z,68
2018-09-27T10:57:40.624Z,68
2018-09-27T10:58:42.951Z,67
2018-09-27T10:59:45.128Z,66
2018-09-27T11:00:47.033Z,66
2018-09-27T11:01:49.367Z,65
2018-09-27T11:02:51.405Z,64
2018-09-27T11:03:54.337Z,66
2018-09-27T11:04:56.678Z,66
2018-09-27T11:05:58.723Z,64
2018-09-27T11:07:00.759Z,65
2018-09-27T11:08:02.810Z,65
2018-09-27T11:09:05.137Z,66
2018-09-27T11:10:07.169Z,65
2018-09-27T11:11:09.392Z,65
2018-09-27T11:12:11.709Z,65
2018-09-27T11:13:13.754Z,64
2018-09-27T11:14:16.084Z,66
2018-09-27T11:15:18.134Z,65
2018-09-27T11:16:20.165Z,64
2018-09-27T11:17:22.213Z,65
2018-09-27T11:18:24.255Z,64
2018-09-27T11:19:26.292Z,63
2018-09-27T11:20:28.343Z,63
2018-09-27T11:21:30.663Z,63
2018-09-27T11:22:32.701Z,64
2018-09-27T11:23:34.750Z,63
2018-09-27T11:24:37.453Z,62
2018-09-27T11:25:39.873Z,61
2018-09-27T11:26:41.919Z,60
2018-09-27T11:27:44.152Z,60
2018-09-27T11:28:46.797Z,59
2018-09-27T11:29:48.851Z,59
2018-09-27T11:30:51.174Z,60
2018-09-27T11:31:53.596Z,61
2018-09-27T11:32:56.104Z,59
2018-09-27T11:33:58.084Z,59
2018-09-27T11:35:00.511Z,57
2018-09-27T11:36:02.549Z,57
2018-09-27T11:37:04.604Z,59
2018-09-27T11:38:06.647Z,58
2018-09-27T11:39:08.978Z,57
2018-09-27T11:40:11.011Z,57
2018-09-27T11:41:13.069Z,57
2018-09-27T11:42:15.121Z,56
2018-09-27T11:43:17.144Z,57
2018-09-27T11:44:19.190Z,57
2018-09-27T11:45:21.227Z,55
2018-09-27T11:46:23.270Z,53
2018-09-27T11:47:25.318Z,55
2018-09-27T11:48:27.367Z,55
2018-09-27T11:49:29.920Z,54
2018-09-27T11:50:32.741Z,54
2018-09-27T11:51:34.789Z,55
2018-09-27T11:52:36.827Z,55
2018-09-27T11:53:38.887Z,55
2018-09-27T11:54:40.932Z,55
2018-09-27T11:55:42.974Z,55
2018-09-27T11:56:45.031Z,54
2018-09-27T11:57:47.076Z,55
2018-09-27T11:58:49.789Z,54
2018-09-27T11:59:52.222Z,54
2018-09-27T12:00:54.262Z,54
2018-09-27T12:01:56.601Z,55
2018-09-27T12:02:58.650Z,54
2018-09-27T12:04:00.702Z,54
2018-09-27T12:05:03.022Z,56
2018-09-27T12:06:05.082Z,55
2018-09-27T12:07:07.409Z,56
2018-09-27T12:08:09.453Z,55
2018-09-27T12:09:11.502Z,57
2018-09-27T12:10:13.536Z,57
2018-09-27T12:11:15.585Z,57
2018-09-27T12:12:18.019Z,58
2018-09-27T12:13:20.121Z,57
2018-09-27T12:14:22.108Z,57
2018-09-27T12:15:24.156Z,57
2018-09-27T12:16:26.194Z,59
2018-09-27T12:17:28.969Z,59
2018-09-27T12:18:31.256Z,59
2018-09-27T12:19:33.590Z,59
2018-09-27T12:20:35.647Z,60
2018-09-27T12:21:37.678Z,59
2018-09-27T12:22:39.709Z,61
2018-09-27T12:23:41.757Z,60
2018-09-27T12:24:43.801Z,59
2018-09-27T12:25:46.643Z,60
2018-09-27T12:26:48.689Z,60
2018-09-27T12:27:51.404Z,60
2018-09-27T12:28:53.436Z,61
2018-09-27T12:29:56.059Z,61
2018-09-27T12:30:58.143Z,61
2018-09-27T12:32:00.130Z,61
2018-09-27T12:33:02.178Z,61
2018-09-27T12:34:05.075Z,60
2018-09-27T12:35:07.464Z,61
2018-09-27T12:36:09.510Z,60
2018-09-27T12:37:11.554Z,61
2018-09-27T12:38:13.893Z,60
2018-09-27T12:39:16.324Z,61
2018-09-27T12:40:18.666Z,62
2018-09-27T12:41:21.093Z,62
2018-09-27T12:42:23.224Z,62
2018-09-27T12:43:25.172Z,62
2018-09-27T12:44:27.218Z,62
2018-09-27T12:45:29.365Z,61
2018-09-27T12:46:31.440Z,62
2018-09-27T12:47:33.853Z,62
2018-09-27T12:48:36.040Z,63
2018-09-27T12:49:37.948Z,63
2018-09-27T12:50:40.594Z,63
2018-09-27T12:51:42.598Z,62
2018-09-27T12:52:45.101Z,63
2018-09-27T12:53:47.436Z,63
2018-09-27T12:54:49.470Z,62
2018-09-27T12:55:51.575Z,63
2018-09-27T12:56:53.559Z,63
2018-09-27T12:57:55.599Z,62
2018-09-27T12:58:57.643Z,61
2018-09-27T12:59:59.676Z,61
2018-09-27T13:01:02.405Z,61
2018-09-27T13:02:04.617Z,61
2018-09-27T13:03:06.447Z,61
2018-09-27T13:04:09.017Z,61
2018-09-27T13:05:11.012Z,61
2018-09-27T13:06:13.053Z,62
2018-09-27T13:07:15.699Z,62
2018-09-27T13:08:17.746Z,62
2018-09-27T13:09:19.942Z,62
2018-09-27T13:10:21.856Z,62
2018-09-27T13:11:24.314Z,62
2018-09-27T13:12:26.445Z,62
2018-09-27T13:13:29.088Z,63
2018-09-27T13:14:30.960Z,62
2018-09-27T13:15:33.314Z,62
2018-09-27T13:16:35.366Z,63
2018-09-27T13:17:38.116Z,63
2018-09-27T13:18:39.972Z,63
2018-09-27T13:19:42.084Z,63
2018-09-27T13:20:47.167Z,62
2018-09-27T13:21:49.225Z,62
2018-09-27T13:22:51.807Z,63
2018-09-27T13:23:53.939Z,63
2018-09-27T13:24:56.147Z,62
2018-09-27T13:25:58.181Z,64
2018-09-27T13:27:00.432Z,63
2018-09-27T13:28:02.424Z,63
2018-09-27T13:29:04.481Z,64
2018-09-27T13:30:07.316Z,63
2018-09-27T13:31:09.381Z,62
2018-09-27T13:32:11.449Z,62
2018-09-27T13:33:13.520Z,62
2018-09-27T13:34:16.338Z,62
2018-09-27T13:35:18.384Z,62
2018-09-27T13:36:20.415Z,61
2018-09-27T13:37:22.459Z,62
2018-09-27T13:38:24.798Z,62
2018-09-27T13:39:27.127Z,63
2018-09-27T13:40:29.172Z,63
2018-09-27T13:41:31.207Z,63
2018-09-27T13:42:33.242Z,63
2018-09-27T13:43:35.282Z,63
2018-09-27T13:44:37.620Z,63
2018-09-27T13:45:39.648Z,63
2018-09-27T13:46:41.692Z,64
2018-09-27T13:47:43.733Z,63
2018-09-27T13:48:45.770Z,64
2018-09-27T13:49:47.825Z,63
2018-09-27T13:50:50.188Z,63
2018-09-27T13:51:52.198Z,63
2018-09-27T13:52:54.614Z,64
2018-09-27T13:53:56.974Z,64
2018-09-27T13:54:59.024Z,64
2018-09-27T13:56:01.410Z,65
2018-09-27T13:57:04.165Z,64
2018-09-27T13:58:06.080Z,64
2018-09-27T13:59:08.134Z,64
2018-09-27T14:00:10.180Z,64
2018-09-27T14:01:12.226Z,64
2018-09-27T14:02:14.258Z,64
2018-09-27T14:03:16.299Z,64
2018-09-27T14:04:18.338Z,64
2018-09-27T14:05:20.420Z,65
2018-09-27T14:06:22.422Z,64
2018-09-27T14:07:24.460Z,64
2018-09-27T14:08:26.792Z,64
2018-09-27T14:09:29.201Z,64
2018-09-27T14:10:31.255Z,64
2018-09-27T14:11:33.299Z,65
2018-09-27T14:12:35.341Z,64
2018-09-27T14:13:37.386Z,64
2018-09-27T14:14:39.493Z,65
2018-09-27T14:15:41.457Z,64
2018-09-27T14:16:43.890Z,65
2018-09-27T14:17:46.236Z,65
2018-09-27T14:18:48.266Z,64
2018-09-27T14:19:50.313Z,64
2018-09-27T14:20:52.348Z,64
2018-09-27T14:21:54.382Z,65
2018-09-27T14:22:56.436Z,64
2018-09-27T14:23:58.473Z,64
2018-09-27T14:25:00.619Z,64
2018-09-27T14:26:03.432Z,64
2018-09-27T14:27:05.869Z,64
2018-09-27T14:28:07.907Z,64
2018-09-27T14:29:09.937Z,65
2018-09-27T14:30:12.277Z,64
2018-09-27T14:31:14.594Z,63
2018-09-27T14:32:16.694Z,63
2018-09-27T14:33:18.701Z,63
2018-09-27T14:34:20.747Z,63
2018-09-27T14:35:22.777Z,63
2018-09-27T14:36:24.822Z,63
2018-09-27T14:37:26.864Z,63
2018-09-27T14:38:28.896Z,63
2018-09-27T14:39:31.627Z,63
2018-09-27T14:40:33.664Z,62
2018-09-27T14:41:35.724Z,63
2018-09-27T14:42:37.862Z,63
2018-09-27T14:43:39.834Z,64
2018-09-27T14:44:41.870Z,64
2018-09-27T14:45:43.905Z,63
2018-09-27T14:46:45.950Z,63